createdAt,value
2022-10-27T00:02:35.837Z,5.73
2022-10-27T00:05:41.655Z,5.74
2022-10-27T00:08:47.206Z,5.72
2022-10-27T00:11:52.608Z,5.69
2022-10-27T00:14:58.101Z,5.66
2022-10-27T00:18:08.152Z,5.62
2022-10-27T00:21:16.110Z,5.57
2022-10-27T00:24:22.025Z,5.54
2022-10-27T00:27:28.393Z,5.51
2022-10-27T00:30:33.934Z,5.47
2022-10-27T00:33:39.588Z,5.43
2022-10-27T00:36:45.139Z,5.39
2022-10-27T00:39:50.993Z,5.36
2022-10-27T00:42:56.433Z,5.31
2022-10-27T00:46:06.438Z,5.27
2022-10-27T00:49:15.270Z,5.23
2022-10-27T00:52:26.812Z,5.20
2022-10-27T00:55:35.841Z,5.19
2022-10-27T00:58:42.855Z,5.17
2022-10-27T01:01:50.577Z,5.14
2022-10-27T01:05:01.247Z,5.12
2022-10-27T01:08:08.692Z,5.09
2022-10-27T01:11:14.282Z,5.07
2022-10-27T01:14:19.764Z,5.05
2022-10-27T01:17:40.131Z,5.02
2022-10-27T01:21:04.328Z,5.00
2022-10-27T01:24:35.521Z,4.94
2022-10-27T01:28:19.981Z,4.90
2022-10-27T01:31:29.257Z,4.85
2022-10-27T01:34:42.139Z,4.84
2022-10-27T01:37:53.685Z,4.83
2022-10-27T01:41:03.926Z,4.81
2022-10-27T01:44:16.553Z,4.79
2022-10-27T01:47:24.101Z,4.77
2022-10-27T01:50:45.449Z,4.78
2022-10-27T01:54:00.594Z,4.77
2022-10-27T01:57:18.332Z,4.81
2022-10-27T02:00:23.982Z,4.82
2022-10-27T02:03:36.661Z,4.81
2022-10-27T02:06:50.135Z,4.80
2022-10-27T02:10:00.599Z,4.74
2022-10-27T02:13:06.893Z,4.66
2022-10-27T02:16:13.539Z,4.59
2022-10-27T02:19:23.948Z,4.55
2022-10-27T02:22:33.168Z,4.55
2022-10-27T02:25:46.266Z,4.55
2022-10-27T02:28:57.261Z,4.50
2022-10-27T02:32:06.441Z,4.41
2022-10-27T02:35:13.859Z,4.34
2022-10-27T02:38:19.524Z,4.34
2022-10-27T02:41:25.050Z,4.34
2022-10-27T02:44:30.519Z,4.35
2022-10-27T02:47:36.068Z,4.34
2022-10-27T02:50:41.637Z,4.32
2022-10-27T02:53:47.168Z,4.28
2022-10-27T02:56:52.819Z,4.25
2022-10-27T02:59:58.268Z,4.24
2022-10-27T03:03:03.917Z,4.19
2022-10-27T03:06:09.557Z,4.13
2022-10-27T03:09:15.120Z,4.09
2022-10-27T03:12:20.565Z,4.07
2022-10-27T03:15:26.116Z,4.05
2022-10-27T03:18:31.562Z,4.02
2022-10-27T03:21:37.010Z,4.02
2022-10-27T03:24:42.504Z,4.06
2022-10-27T03:27:48.006Z,4.09
2022-10-27T03:30:53.759Z,4.13
2022-10-27T03:33:59.167Z,4.15
2022-10-27T03:37:04.654Z,4.17
2022-10-27T03:40:12.742Z,4.14
2022-10-27T03:43:18.314Z,4.11
2022-10-27T03:46:23.761Z,4.06
2022-10-27T03:49:29.335Z,4.02
2022-10-27T03:52:34.960Z,3.98
2022-10-27T03:55:40.407Z,3.99
2022-10-27T03:58:45.956Z,4.02
2022-10-27T04:01:51.788Z,4.05
2022-10-27T04:05:00.046Z,4.06
2022-10-27T04:08:05.664Z,4.03
2022-10-27T04:11:11.126Z,4.01
2022-10-27T04:14:16.557Z,4.00
2022-10-27T04:17:22.121Z,4.00
2022-10-27T04:20:28.697Z,3.99
2022-10-27T04:23:34.345Z,3.95
2022-10-27T04:26:39.793Z,3.91
2022-10-27T04:29:45.205Z,3.87
2022-10-27T04:32:54.592Z,3.85
2022-10-27T04:36:00.885Z,3.83
2022-10-27T04:39:04.842Z,3.78
2022-10-27T04:42:11.741Z,3.72
2022-10-27T04:45:17.948Z,3.67
2022-10-27T04:48:23.451Z,3.63
2022-10-27T04:51:28.942Z,3.61
2022-10-27T04:54:34.550Z,3.60
2022-10-27T04:57:39.960Z,3.59
2022-10-27T05:00:45.397Z,3.58
2022-10-27T05:03:51.128Z,3.57
2022-10-27T05:06:56.544Z,3.57
2022-10-27T05:10:01.954Z,3.57
2022-10-27T05:13:07.406Z,3.55
2022-10-27T05:16:12.883Z,3.53
2022-10-27T05:19:18.332Z,3.51
2022-10-27T05:22:23.732Z,3.49
2022-10-27T05:25:29.315Z,3.46
2022-10-27T05:28:35.084Z,3.44
2022-10-27T05:31:40.508Z,3.41
2022-10-27T05:34:46.080Z,3.40
2022-10-27T05:37:51.969Z,3.40
2022-10-27T05:41:00.965Z,3.42
2022-10-27T05:44:06.677Z,3.48
2022-10-27T05:47:12.474Z,3.52
2022-10-27T05:50:18.208Z,3.54
2022-10-27T05:53:23.930Z,3.58
2022-10-27T05:56:29.431Z,3.66
2022-10-27T05:59:34.878Z,3.73
2022-10-27T06:02:40.310Z,3.80
2022-10-27T06:05:45.873Z,3.87
2022-10-27T06:08:51.297Z,3.93
2022-10-27T06:11:56.754Z,3.97
2022-10-27T06:15:02.315Z,3.99
2022-10-27T06:18:08.069Z,4.00
2022-10-27T06:21:13.776Z,4.04
2022-10-27T06:24:19.164Z,4.10
2022-10-27T06:27:24.718Z,4.17
2022-10-27T06:30:30.168Z,4.22
2022-10-27T06:33:35.714Z,4.25
2022-10-27T06:36:41.160Z,4.28
2022-10-27T06:39:47.428Z,4.34
2022-10-27T06:43:08.186Z,4.38
2022-10-27T06:46:14.277Z,4.43
2022-10-27T06:49:20.052Z,4.48
2022-10-27T06:52:25.812Z,4.56
2022-10-27T06:55:31.718Z,4.62
2022-10-27T06:58:39.522Z,4.68
2022-10-27T07:01:45.105Z,4.73
2022-10-27T07:04:50.665Z,4.78
2022-10-27T07:07:57.482Z,4.84
2022-10-27T07:11:03.094Z,4.92
2022-10-27T07:14:08.747Z,5.00
2022-10-27T07:17:14.200Z,5.09
2022-10-27T07:20:19.641Z,5.19
2022-10-27T07:23:25.073Z,5.30
2022-10-27T07:26:30.841Z,5.43
2022-10-27T07:29:36.289Z,5.56
2022-10-27T07:32:41.837Z,5.68
2022-10-27T07:35:51.101Z,5.78
2022-10-27T07:38:57.017Z,5.88
2022-10-27T07:42:03.195Z,5.99
2022-10-27T07:45:10.489Z,6.07
2022-10-27T07:48:17.624Z,6.15
2022-10-27T07:51:23.326Z,6.21
2022-10-27T07:54:29.721Z,6.29
2022-10-27T07:57:35.244Z,6.38
2022-10-27T08:00:42.638Z,6.48
2022-10-27T08:03:51.111Z,6.63
2022-10-27T08:06:57.012Z,6.79
2022-10-27T08:10:02.971Z,6.93
2022-10-27T08:13:10.000Z,7.06
2022-10-27T08:16:15.605Z,7.20
2022-10-27T08:19:21.377Z,7.34
2022-10-27T08:22:27.056Z,7.50
2022-10-27T08:25:33.193Z,7.67
2022-10-27T08:28:38.615Z,7.82
2022-10-27T08:31:44.024Z,7.97
2022-10-27T08:34:51.593Z,8.09
2022-10-27T08:38:02.597Z,8.22
2022-10-27T08:41:21.150Z,8.37
2022-10-27T08:44:33.095Z,8.53
2022-10-27T08:47:38.850Z,8.70
2022-10-27T08:50:46.060Z,8.85
2022-10-27T08:53:55.133Z,9.01
2022-10-27T08:57:04.510Z,9.16
2022-10-27T09:00:15.399Z,9.31
2022-10-27T09:03:37.832Z,9.48
2022-10-27T09:06:57.564Z,9.66
2022-10-27T09:10:07.359Z,9.83
2022-10-27T09:13:27.172Z,10.02
2022-10-27T09:16:39.972Z,10.21
2022-10-27T09:19:49.709Z,10.39
2022-10-27T09:22:57.409Z,10.53
2022-10-27T09:26:02.896Z,10.76
2022-10-27T09:29:17.519Z,11.03
2022-10-27T09:32:27.472Z,11.25
2022-10-27T09:35:32.919Z,11.43
2022-10-27T09:38:38.688Z,11.57
2022-10-27T09:41:44.428Z,11.69
2022-10-27T09:44:55.612Z,11.85
2022-10-27T09:48:07.448Z,11.97
2022-10-27T09:51:20.429Z,12.09
2022-10-27T09:54:34.161Z,12.20
2022-10-27T09:57:42.179Z,12.31
2022-10-27T10:00:56.538Z,12.39
2022-10-27T10:04:17.085Z,12.50
2022-10-27T10:07:40.367Z,12.61
2022-10-27T10:10:57.222Z,12.73
2022-10-27T10:14:04.151Z,12.83
2022-10-27T10:17:27.759Z,12.92
2022-10-27T10:20:39.565Z,13.10
2022-10-27T10:23:54.238Z,13.23
2022-10-27T10:27:01.932Z,13.35
2022-10-27T10:30:19.198Z,13.52
2022-10-27T10:33:27.470Z,13.66
2022-10-27T10:36:38.558Z,13.80
2022-10-27T10:39:44.098Z,13.98
2022-10-27T10:43:01.319Z,14.13
2022-10-27T10:46:08.514Z,14.26
2022-10-27T10:49:23.345Z,14.42
2022-10-27T10:52:34.875Z,14.57
2022-10-27T10:55:41.130Z,14.73
2022-10-27T10:58:47.508Z,14.88
2022-10-27T11:01:57.502Z,15.02
2022-10-27T11:05:15.650Z,15.19
2022-10-27T11:08:24.359Z,15.35
2022-10-27T11:11:37.554Z,15.51
2022-10-27T11:14:46.706Z,15.68
2022-10-27T11:17:57.661Z,15.83
2022-10-27T11:21:08.656Z,16.03
2022-10-27T11:24:21.461Z,16.22
2022-10-27T11:27:33.881Z,16.42
2022-10-27T11:30:47.101Z,16.61
2022-10-27T11:33:58.995Z,16.77
2022-10-27T11:37:08.642Z,16.90
2022-10-27T11:40:23.419Z,16.98
2022-10-27T11:43:34.661Z,17.08
2022-10-27T11:46:44.614Z,17.18
2022-10-27T11:49:55.214Z,17.26
2022-10-27T11:53:02.088Z,17.32
2022-10-27T11:56:21.583Z,17.35
2022-10-27T11:59:38.998Z,17.40
2022-10-27T12:03:09.130Z,17.43
2022-10-27T12:06:22.767Z,17.44
2022-10-27T12:09:40.902Z,17.50
2022-10-27T12:12:49.078Z,17.57
2022-10-27T12:16:00.504Z,17.63
2022-10-27T12:19:11.787Z,17.71
2022-10-27T12:22:23.584Z,17.76
2022-10-27T12:25:34.418Z,17.83
2022-10-27T12:28:40.301Z,17.90
2022-10-27T12:31:47.703Z,17.95
2022-10-27T12:34:59.460Z,17.97
2022-10-27T12:38:13.142Z,18.02
2022-10-27T12:41:29.035Z,18.05
2022-10-27T12:44:46.210Z,18.09
2022-10-27T12:48:01.677Z,18.14
2022-10-27T12:51:23.465Z,18.16
2022-10-27T12:58:02.932Z,18.17
2022-10-27T13:01:15.632Z,18.18
2022-10-27T13:04:45.470Z,18.21
2022-10-27T13:08:15.389Z,18.26
2022-10-27T13:11:35.065Z,18.30
2022-10-27T13:15:17.686Z,18.27
2022-10-27T13:18:58.474Z,18.24
2022-10-27T13:22:12.572Z,18.24
2022-10-27T13:25:22.706Z,18.24
2022-10-27T13:28:34.363Z,18.25
2022-10-27T13:31:40.316Z,18.23
2022-10-27T13:34:44.541Z,18.18
2022-10-27T13:38:10.771Z,18.13
2022-10-27T13:42:07.583Z,18.10
2022-10-27T13:45:43.893Z,18.07
2022-10-27T13:48:53.353Z,18.02
2022-10-27T13:55:37.957Z,17.98
2022-10-27T13:58:57.705Z,17.92
2022-10-27T14:02:10.943Z,17.89
2022-10-27T14:05:26.802Z,17.87
2022-10-27T14:08:31.860Z,17.84
2022-10-27T14:11:37.619Z,17.78
2022-10-27T14:14:43.785Z,17.76
2022-10-27T14:17:50.861Z,17.73
2022-10-27T14:21:00.470Z,17.68
2022-10-27T14:24:11.486Z,17.63
2022-10-27T14:27:18.881Z,17.57
2022-10-27T14:30:25.129Z,17.50
2022-10-27T14:33:30.694Z,17.44
2022-10-27T14:36:38.289Z,17.36
2022-10-27T14:39:44.155Z,17.29
2022-10-27T14:42:50.973Z,17.21
2022-10-27T14:46:01.288Z,17.12
2022-10-27T14:49:10.664Z,17.02
2022-10-27T14:52:21.503Z,16.93
2022-10-27T14:55:33.707Z,16.82
2022-10-27T14:58:39.255Z,16.69
2022-10-27T15:01:45.692Z,16.59
2022-10-27T15:04:51.273Z,16.47
2022-10-27T15:07:59.792Z,16.31
2022-10-27T15:11:08.675Z,16.16
2022-10-27T15:14:14.170Z,16.03
2022-10-27T15:17:24.633Z,15.89
2022-10-27T15:20:30.287Z,15.76
2022-10-27T15:23:36.577Z,15.62
2022-10-27T15:26:42.445Z,15.48
2022-10-27T15:29:52.396Z,15.33
2022-10-27T15:32:57.910Z,15.20
2022-10-27T15:36:20.193Z,15.04
2022-10-27T15:39:26.319Z,14.86
2022-10-27T15:42:39.368Z,14.68
2022-10-27T15:45:45.857Z,14.54
2022-10-27T15:48:57.207Z,14.39
2022-10-27T15:52:07.823Z,14.25
2022-10-27T15:55:24.918Z,14.12
2022-10-27T15:58:32.904Z,13.99
2022-10-27T16:01:38.781Z,13.87
2022-10-27T16:04:47.334Z,13.76
2022-10-27T16:07:55.346Z,13.66
2022-10-27T16:11:01.030Z,13.59
2022-10-27T16:14:12.160Z,13.50
2022-10-27T16:17:20.662Z,13.42
2022-10-27T16:20:29.158Z,13.34
2022-10-27T16:23:34.698Z,13.30
2022-10-27T16:26:40.441Z,13.22
2022-10-27T16:29:45.990Z,13.11
2022-10-27T16:32:57.694Z,13.01
2022-10-27T16:36:03.082Z,12.89
2022-10-27T16:39:08.589Z,12.79
2022-10-27T16:42:14.311Z,12.67
2022-10-27T16:45:21.560Z,12.55
2022-10-27T16:48:27.185Z,12.42
2022-10-27T16:51:32.650Z,12.32
2022-10-27T16:54:39.103Z,12.24
2022-10-27T16:57:47.243Z,12.16
2022-10-27T17:00:55.151Z,12.05
2022-10-27T17:04:04.401Z,11.93
2022-10-27T17:07:10.005Z,11.81
2022-10-27T17:10:16.979Z,11.69
2022-10-27T17:13:22.648Z,11.62
2022-10-27T17:16:28.073Z,11.59
2022-10-27T17:19:33.622Z,11.55
2022-10-27T17:22:39.594Z,11.49
2022-10-27T17:25:45.043Z,11.40
2022-10-27T17:28:52.281Z,11.30
2022-10-27T17:31:57.735Z,11.19
2022-10-27T17:35:03.226Z,11.08
2022-10-27T17:38:08.674Z,10.99
2022-10-27T17:41:14.222Z,10.89
2022-10-27T17:44:19.772Z,10.78
2022-10-27T17:47:25.562Z,10.68
2022-10-27T17:50:32.646Z,10.59
2022-10-27T17:53:39.433Z,10.50
2022-10-27T17:56:44.859Z,10.42
2022-10-27T17:59:50.386Z,10.35
2022-10-27T18:02:55.974Z,10.31
2022-10-27T18:06:03.946Z,10.26
2022-10-27T18:09:11.082Z,10.21
2022-10-27T18:12:16.578Z,10.15
2022-10-27T18:15:35.582Z,10.11
2022-10-27T18:18:42.364Z,10.08
2022-10-27T18:21:49.503Z,10.06
2022-10-27T18:24:54.950Z,9.99
2022-10-27T18:28:00.720Z,9.92
2022-10-27T18:31:11.304Z,9.90
2022-10-27T18:34:17.065Z,9.89
2022-10-27T18:37:22.581Z,9.86
2022-10-27T18:40:28.131Z,9.78
2022-10-27T18:43:33.934Z,9.69
2022-10-27T18:46:39.435Z,9.62
2022-10-27T18:49:48.795Z,9.62
2022-10-27T18:52:55.032Z,9.58
2022-10-27T18:56:02.965Z,9.47
2022-10-27T18:59:08.435Z,9.36
2022-10-27T19:02:14.186Z,9.25
2022-10-27T19:05:19.770Z,9.18
2022-10-27T19:08:25.756Z,9.13
2022-10-27T19:11:31.752Z,9.09
2022-10-27T19:14:37.192Z,9.03
2022-10-27T19:17:43.121Z,9.00
2022-10-27T19:20:48.672Z,8.94
2022-10-27T19:23:58.112Z,8.90
2022-10-27T19:27:03.655Z,8.87
2022-10-27T19:30:11.311Z,8.85
2022-10-27T19:33:16.807Z,8.86
2022-10-27T19:36:24.450Z,8.83
2022-10-27T19:39:29.886Z,8.76
2022-10-27T19:42:36.673Z,8.72
2022-10-27T19:45:49.412Z,8.67
2022-10-27T19:48:56.481Z,8.62
2022-10-27T19:52:01.983Z,8.57
2022-10-27T19:55:08.717Z,8.51
2022-10-27T19:58:14.112Z,8.46
2022-10-27T20:01:22.043Z,8.46
2022-10-27T20:04:27.767Z,8.44
2022-10-27T20:07:33.212Z,8.37
2022-10-27T20:10:41.937Z,8.29
2022-10-27T20:13:48.724Z,8.24
2022-10-27T20:16:54.264Z,8.20
2022-10-27T20:19:59.916Z,8.15
2022-10-27T20:23:06.080Z,8.14
2022-10-27T20:26:29.984Z,8.15
2022-10-27T20:29:36.004Z,8.14
2022-10-27T20:32:43.689Z,8.05
2022-10-27T20:35:49.782Z,7.97
2022-10-27T20:38:56.662Z,7.93
2022-10-27T20:42:02.064Z,7.83
2022-10-27T20:45:09.095Z,7.73
2022-10-27T20:48:14.540Z,7.66
2022-10-27T20:51:21.601Z,7.61
2022-10-27T20:54:27.162Z,7.55
2022-10-27T20:57:32.725Z,7.50
2022-10-27T21:00:38.168Z,7.45
2022-10-27T21:03:43.605Z,7.41
2022-10-27T21:06:52.239Z,7.38
2022-10-27T21:09:57.690Z,7.36
2022-10-27T21:13:03.122Z,7.33
2022-10-27T21:16:09.521Z,7.30
2022-10-27T21:19:14.951Z,7.28
2022-10-27T21:22:20.601Z,7.32
2022-10-27T21:25:27.594Z,7.36
2022-10-27T21:28:33.025Z,7.35
2022-10-27T21:31:38.468Z,7.28
2022-10-27T21:34:43.896Z,7.17
2022-10-27T21:37:49.828Z,7.09
2022-10-27T21:40:58.630Z,7.02
2022-10-27T21:44:04.083Z,6.98
2022-10-27T21:47:09.503Z,7.00
2022-10-27T21:50:14.930Z,7.00
2022-10-27T21:53:20.972Z,6.93
2022-10-27T21:56:26.853Z,6.83
2022-10-27T21:59:32.519Z,6.75
2022-10-27T22:02:37.966Z,6.70
2022-10-27T22:05:43.969Z,6.67
2022-10-27T22:08:50.513Z,6.62
2022-10-27T22:11:56.014Z,6.60
2022-10-27T22:15:01.445Z,6.56
2022-10-27T22:18:06.953Z,6.52
2022-10-27T22:21:15.612Z,6.50
2022-10-27T22:24:21.113Z,6.50
2022-10-27T22:27:26.538Z,6.52
2022-10-27T22:30:31.985Z,6.48
2022-10-27T22:33:41.827Z,6.44
2022-10-27T22:36:51.122Z,6.41
2022-10-27T22:39:57.684Z,6.36
2022-10-27T22:43:03.122Z,6.33
2022-10-27T22:46:11.483Z,6.34
2022-10-27T22:49:16.978Z,6.31
2022-10-27T22:52:22.427Z,6.28
2022-10-27T22:55:27.975Z,6.27
2022-10-27T22:58:33.653Z,6.25
2022-10-27T23:01:40.812Z,6.28
2022-10-27T23:04:46.468Z,6.26
2022-10-27T23:07:52.015Z,6.20
2022-10-27T23:10:58.725Z,6.18
2022-10-27T23:14:04.572Z,6.16
2022-10-27T23:17:11.534Z,6.14
2022-10-27T23:20:17.284Z,6.10
2022-10-27T23:23:22.732Z,6.06
2022-10-27T23:26:30.036Z,6.02
2022-10-27T23:29:35.556Z,5.99
2022-10-27T23:32:40.944Z,5.99
2022-10-27T23:35:55.730Z,5.98
2022-10-27T23:39:01.337Z,5.88
2022-10-27T23:42:07.201Z,5.83
2022-10-27T23:45:13.378Z,5.83
2022-10-27T23:48:18.905Z,5.84
2022-10-27T23:51:25.239Z,5.86
2022-10-27T23:54:30.719Z,5.84
2022-10-27T23:57:36.166Z,5.77
